createdAt,value
2022-11-16T00:00:40.783Z,12.39
2022-11-16T00:01:43.623Z,12.38
2022-11-16T00:02:46.376Z,12.39
2022-11-16T00:03:49.081Z,12.39
2022-11-16T00:04:51.667Z,12.39
2022-11-16T00:05:54.372Z,12.4
2022-11-16T00:06:57.144Z,12.4
2022-11-16T00:07:59.836Z,12.4
2022-11-16T00:09:02.470Z,12.41
2022-11-16T00:10:05.116Z,12.41
2022-11-16T00:11:07.760Z,12.41
2022-11-16T00:12:10.396Z,12.42
2022-11-16T00:13:13.016Z,12.43
2022-11-16T00:14:15.636Z,12.42
2022-11-16T00:15:18.286Z,12.42
2022-11-16T00:16:20.912Z,12.43
2022-11-16T00:17:23.546Z,12.41
2022-11-16T00:18:26.175Z,12.42
2022-11-16T00:19:28.813Z,12.42
2022-11-16T00:20:31.456Z,12.39
2022-11-16T00:21:34.184Z,12.36
2022-11-16T00:22:36.858Z,12.34
2022-11-16T00:23:39.537Z,12.31
2022-11-16T00:24:42.166Z,12.3
2022-11-16T00:25:44.790Z,12.29
2022-11-16T00:26:47.974Z,12.3
2022-11-16T00:27:50.572Z,12.28
2022-11-16T00:28:53.218Z,12.27
2022-11-16T00:29:56.037Z,12.26
2022-11-16T00:30:58.637Z,12.27
2022-11-16T00:32:01.258Z,12.26
2022-11-16T00:33:06.610Z,12.26
2022-11-16T00:34:08.967Z,12.27
2022-11-16T00:35:11.620Z,12.28
2022-11-16T00:36:14.271Z,12.29
2022-11-16T00:37:16.910Z,12.28
2022-11-16T00:38:19.560Z,12.28
2022-11-16T00:39:22.235Z,12.29
2022-11-16T00:40:24.878Z,12.28
2022-11-16T00:41:27.524Z,12.26
2022-11-16T00:42:30.170Z,12.24
2022-11-16T00:43:32.789Z,12.25
2022-11-16T00:44:35.431Z,12.25
2022-11-16T00:45:38.053Z,12.26
2022-11-16T00:46:40.715Z,12.25
2022-11-16T00:47:43.346Z,12.26
2022-11-16T00:48:45.986Z,12.27
2022-11-16T00:49:48.593Z,12.27
2022-11-16T00:50:51.206Z,12.27
2022-11-16T00:51:53.839Z,12.27
2022-11-16T00:52:56.544Z,12.27
2022-11-16T00:53:59.421Z,12.27
2022-11-16T00:55:02.029Z,12.24
2022-11-16T00:56:04.651Z,12.25
2022-11-16T00:57:07.293Z,12.26
2022-11-16T00:58:09.925Z,12.26
2022-11-16T00:59:12.556Z,12.26
2022-11-16T01:00:15.207Z,12.26
2022-11-16T01:01:18.016Z,12.27
2022-11-16T01:02:20.691Z,12.27
2022-11-16T01:03:23.356Z,12.27
2022-11-16T01:04:26.026Z,12.28
2022-11-16T01:05:28.635Z,12.28
2022-11-16T01:06:31.252Z,12.28
2022-11-16T01:07:34.170Z,12.29
2022-11-16T01:08:37.453Z,12.28
2022-11-16T01:09:43.617Z,12.27
2022-11-16T01:10:46.128Z,12.27
2022-11-16T01:11:48.791Z,12.28
2022-11-16T01:12:51.427Z,12.28
2022-11-16T01:13:54.068Z,12.28
2022-11-16T01:14:56.729Z,12.28
2022-11-16T01:15:59.341Z,12.28
2022-11-16T01:17:01.991Z,12.27
2022-11-16T01:18:04.597Z,12.29
2022-11-16T01:19:07.837Z,12.28
2022-11-16T01:20:10.418Z,12.29
2022-11-16T01:21:13.032Z,12.29
2022-11-16T01:22:19.413Z,12.3
2022-11-16T01:23:22.418Z,12.3
2022-11-16T01:24:25.087Z,12.31
2022-11-16T01:25:27.732Z,12.31
2022-11-16T01:26:30.371Z,12.32
2022-11-16T01:27:33.020Z,12.33
2022-11-16T01:28:36.864Z,12.33
2022-11-16T01:29:40.705Z,12.33
2022-11-16T01:30:43.274Z,12.32
2022-11-16T01:31:45.873Z,12.33
2022-11-16T01:32:48.516Z,12.32
2022-11-16T01:33:51.146Z,12.33
2022-11-16T01:34:53.766Z,12.31
2022-11-16T01:35:56.381Z,12.31
2022-11-16T01:36:58.988Z,12.3
2022-11-16T01:38:01.626Z,12.3
2022-11-16T01:39:04.414Z,12.28
2022-11-16T01:40:07.124Z,12.28
2022-11-16T01:41:09.765Z,12.29
2022-11-16T01:42:12.433Z,12.29
2022-11-16T01:43:15.082Z,12.29
2022-11-16T01:44:17.708Z,12.3
2022-11-16T01:45:20.293Z,12.31
2022-11-16T01:46:23.119Z,12.3
2022-11-16T01:47:25.735Z,12.31
2022-11-16T01:48:31.728Z,12.3
2022-11-16T01:49:35.160Z,12.3
2022-11-16T01:50:37.864Z,12.28
2022-11-16T01:51:40.586Z,12.29
2022-11-16T01:52:43.193Z,12.28
2022-11-16T01:53:46.066Z,12.29
2022-11-16T01:54:48.706Z,12.29
2022-11-16T01:55:51.403Z,12.3
2022-11-16T01:56:54.034Z,12.31
2022-11-16T01:57:56.681Z,12.3
2022-11-16T01:58:59.327Z,12.31
2022-11-16T02:00:01.982Z,12.33
2022-11-16T02:01:04.824Z,12.34
2022-11-16T02:02:07.556Z,12.32
2022-11-16T02:03:10.231Z,12.32
2022-11-16T02:04:12.852Z,12.32
2022-11-16T02:05:15.713Z,12.31
2022-11-16T02:06:18.332Z,12.3
2022-11-16T02:07:21.421Z,12.3
2022-11-16T02:08:24.061Z,12.28
2022-11-16T02:09:26.710Z,12.21
2022-11-16T02:10:29.339Z,12.13
2022-11-16T02:11:32.103Z,12.08
2022-11-16T02:12:34.741Z,12.1
2022-11-16T02:13:37.401Z,12.11
2022-11-16T02:14:40.028Z,12.12
2022-11-16T02:15:42.611Z,12.12
2022-11-16T02:16:45.483Z,12.12
2022-11-16T02:17:48.086Z,12.12
2022-11-16T02:18:50.769Z,12.12
2022-11-16T02:19:53.377Z,12.12
2022-11-16T02:20:56.001Z,12.12
2022-11-16T02:21:58.654Z,12.13
2022-11-16T02:23:01.340Z,12.13
2022-11-16T02:24:03.982Z,12.13
2022-11-16T02:25:06.772Z,12.13
2022-11-16T02:26:09.404Z,12.13
2022-11-16T02:27:12.098Z,12.14
2022-11-16T02:28:16.276Z,12.13
2022-11-16T02:29:18.793Z,12.14
2022-11-16T02:30:21.621Z,12.12
2022-11-16T02:31:24.263Z,12.1
2022-11-16T02:32:26.916Z,12.1
2022-11-16T02:33:29.494Z,12.12
2022-11-16T02:34:32.332Z,12.13
2022-11-16T02:35:34.966Z,12.14
2022-11-16T02:36:37.629Z,12.16
2022-11-16T02:37:40.271Z,12.17
2022-11-16T02:38:42.896Z,12.17
2022-11-16T02:39:45.523Z,12.19
2022-11-16T02:40:48.212Z,12.19
2022-11-16T02:41:50.802Z,12.2
2022-11-16T02:42:53.495Z,12.22
2022-11-16T02:43:56.164Z,12.23
2022-11-16T02:44:58.750Z,12.26
2022-11-16T02:46:01.396Z,12.27
2022-11-16T02:47:04.102Z,12.25
2022-11-16T02:48:06.742Z,12.26
2022-11-16T02:49:09.391Z,12.26
2022-11-16T02:50:12.030Z,12.26
2022-11-16T02:51:14.668Z,12.27
2022-11-16T02:52:17.301Z,12.28
2022-11-16T02:53:19.944Z,12.28
2022-11-16T02:54:22.592Z,12.28
2022-11-16T02:55:25.218Z,12.28
2022-11-16T02:56:28.498Z,12.28
2022-11-16T02:57:31.111Z,12.29
2022-11-16T02:58:34.709Z,12.29
2022-11-16T02:59:38.037Z,12.31
2022-11-16T03:00:40.867Z,12.31
2022-11-16T03:01:43.524Z,12.31
2022-11-16T03:02:46.168Z,12.32
2022-11-16T03:03:48.811Z,12.32
2022-11-16T03:04:51.435Z,12.33
2022-11-16T03:05:54.103Z,12.34
2022-11-16T03:06:57.516Z,12.37
2022-11-16T03:08:00.882Z,12.38
2022-11-16T03:09:03.581Z,12.39
2022-11-16T03:10:06.205Z,12.39
2022-11-16T03:11:08.856Z,12.39
2022-11-16T03:12:11.890Z,12.39
2022-11-16T03:13:14.497Z,12.39
2022-11-16T03:14:17.245Z,12.39
2022-11-16T03:15:19.878Z,12.41
2022-11-16T03:16:22.530Z,12.43
2022-11-16T03:17:25.143Z,12.43
2022-11-16T03:18:27.779Z,12.45
2022-11-16T03:19:30.416Z,12.46
2022-11-16T03:20:33.040Z,12.45
2022-11-16T03:21:35.656Z,12.46
2022-11-16T03:22:38.313Z,12.48
2022-11-16T03:23:40.987Z,12.48
2022-11-16T03:24:43.642Z,12.47
2022-11-16T03:25:46.460Z,12.49
2022-11-16T03:26:49.301Z,12.49
2022-11-16T03:27:51.929Z,12.5
2022-11-16T03:28:54.554Z,12.51
2022-11-16T03:29:57.299Z,12.52
2022-11-16T03:31:00.015Z,12.52
2022-11-16T03:32:03.233Z,12.52
2022-11-16T03:33:06.037Z,12.53
2022-11-16T03:34:24.064Z,12.55
2022-11-16T03:35:31.380Z,12.55
2022-11-16T03:36:33.959Z,12.56
2022-11-16T03:37:37.156Z,12.56
2022-11-16T03:38:39.777Z,12.55
2022-11-16T03:39:42.411Z,12.57
2022-11-16T03:40:45.052Z,12.58
2022-11-16T03:41:47.758Z,12.6
2022-11-16T03:42:50.453Z,12.59
2022-11-16T03:43:53.094Z,12.6
2022-11-16T03:44:55.770Z,12.6
2022-11-16T03:45:58.473Z,12.59
2022-11-16T03:47:01.138Z,12.59
2022-11-16T03:48:04.016Z,12.59
2022-11-16T03:49:06.678Z,12.59
2022-11-16T03:50:09.277Z,12.6
2022-11-16T03:51:11.934Z,12.61
2022-11-16T03:52:14.551Z,12.59
2022-11-16T03:53:20.093Z,12.59
2022-11-16T03:54:22.905Z,12.58
2022-11-16T03:55:25.533Z,12.57
2022-11-16T03:56:28.200Z,12.57
2022-11-16T03:57:30.824Z,12.56
2022-11-16T03:58:34.604Z,12.54
2022-11-16T03:59:37.856Z,12.53
2022-11-16T04:00:40.675Z,12.53
2022-11-16T04:01:45.289Z,12.53
2022-11-16T04:02:47.812Z,12.54
2022-11-16T04:03:50.862Z,12.55
2022-11-16T04:05:00.725Z,12.55
2022-11-16T04:06:02.794Z,12.54
2022-11-16T04:07:05.533Z,12.56
2022-11-16T04:08:08.208Z,12.56
2022-11-16T04:09:10.808Z,12.58
2022-11-16T04:10:13.455Z,12.59
2022-11-16T04:11:16.080Z,12.59
2022-11-16T04:12:18.746Z,12.57
2022-11-16T04:13:21.417Z,12.57
2022-11-16T04:14:25.014Z,12.57
2022-11-16T04:15:27.634Z,12.58
2022-11-16T04:16:30.263Z,12.58
2022-11-16T04:17:32.997Z,12.58
2022-11-16T04:18:37.204Z,12.58
2022-11-16T04:19:39.878Z,12.59
2022-11-16T04:20:42.518Z,12.59
2022-11-16T04:21:45.742Z,12.6
2022-11-16T04:22:48.429Z,12.62
2022-11-16T04:23:51.627Z,12.64
2022-11-16T04:24:54.236Z,12.62
2022-11-16T04:25:56.838Z,12.62
2022-11-16T04:26:59.467Z,12.64
2022-11-16T04:28:02.358Z,12.64
2022-11-16T04:29:05.020Z,12.65
2022-11-16T04:30:07.607Z,12.65
2022-11-16T04:31:10.254Z,12.64
2022-11-16T04:32:12.877Z,12.65
2022-11-16T04:33:15.626Z,12.65
2022-11-16T04:34:18.347Z,12.66
2022-11-16T04:35:20.961Z,12.68
2022-11-16T04:36:24.202Z,12.66
2022-11-16T04:37:26.818Z,12.67
2022-11-16T04:38:29.449Z,12.67
2022-11-16T04:39:32.106Z,12.68
2022-11-16T04:40:44.785Z,12.69
2022-11-16T04:41:47.012Z,12.7
2022-11-16T04:42:49.859Z,12.71
2022-11-16T04:43:52.714Z,12.71
2022-11-16T04:44:55.272Z,12.72
2022-11-16T04:45:57.921Z,12.71
2022-11-16T04:47:00.540Z,12.72
2022-11-16T04:48:03.180Z,12.71
2022-11-16T04:49:05.895Z,12.71
2022-11-16T04:50:08.543Z,12.71
2022-11-16T04:51:11.160Z,12.73
2022-11-16T04:52:13.797Z,12.74
2022-11-16T04:53:16.412Z,12.73
2022-11-16T04:54:19.061Z,12.73
2022-11-16T04:55:21.694Z,12.73
2022-11-16T04:56:24.309Z,12.7
2022-11-16T04:57:26.968Z,12.7
2022-11-16T04:58:29.596Z,12.7
2022-11-16T04:59:32.461Z,12.69
2022-11-16T05:00:35.073Z,12.67
2022-11-16T05:01:37.758Z,12.67
2022-11-16T05:02:40.441Z,12.66
2022-11-16T05:03:43.043Z,12.66
2022-11-16T05:04:45.745Z,12.65
2022-11-16T05:05:48.426Z,12.65
2022-11-16T05:06:51.150Z,12.65
2022-11-16T05:07:53.857Z,12.67
2022-11-16T05:08:56.489Z,12.68
2022-11-16T05:09:59.127Z,12.68
2022-11-16T05:11:01.763Z,12.7
2022-11-16T05:12:04.397Z,12.7
2022-11-16T05:13:07.088Z,12.7
2022-11-16T05:14:09.676Z,12.7
2022-11-16T05:15:12.296Z,12.71
2022-11-16T05:16:14.913Z,12.71
2022-11-16T05:17:17.548Z,12.71
2022-11-16T05:18:20.393Z,12.72
2022-11-16T05:19:23.012Z,12.72
2022-11-16T05:20:25.708Z,12.73
2022-11-16T05:21:28.327Z,12.72
2022-11-16T05:22:30.991Z,12.7
2022-11-16T05:23:33.650Z,12.67
2022-11-16T05:24:36.306Z,12.64
2022-11-16T05:25:38.954Z,12.62
2022-11-16T05:26:45.167Z,12.62
2022-11-16T05:27:53.210Z,12.6
2022-11-16T05:28:55.268Z,12.58
2022-11-16T05:32:16.724Z,12.56
2022-11-16T05:33:18.308Z,12.58
2022-11-16T05:35:32.048Z,12.57
2022-11-16T05:36:37.479Z,12.57
2022-11-16T05:37:40.012Z,12.57
2022-11-16T05:38:42.544Z,12.58
2022-11-16T05:40:03.850Z,12.54
2022-11-16T05:41:05.848Z,12.54
2022-11-16T05:42:08.490Z,12.52
2022-11-16T05:43:13.118Z,12.51
2022-11-16T05:44:15.235Z,12.51
2022-11-16T05:45:30.512Z,12.51
2022-11-16T05:46:32.341Z,12.52
2022-11-16T05:47:39.313Z,12.52
2022-11-16T05:48:41.292Z,12.53
2022-11-16T05:49:43.866Z,12.53
2022-11-16T05:50:46.558Z,12.53
2022-11-16T05:51:56.836Z,12.5
2022-11-16T05:52:58.873Z,12.5
2022-11-16T05:54:01.483Z,12.49
2022-11-16T05:55:04.076Z,12.49
2022-11-16T05:56:11.063Z,12.47
2022-11-16T05:57:13.398Z,12.47
2022-11-16T05:58:16.325Z,12.49
2022-11-16T05:59:18.935Z,12.49
2022-11-16T06:00:28.266Z,12.47
2022-11-16T06:01:30.164Z,12.49
2022-11-16T06:02:32.804Z,12.48
2022-11-16T06:03:35.590Z,12.48
2022-11-16T06:04:38.561Z,12.48
2022-11-16T06:05:41.181Z,12.48
2022-11-16T06:06:43.796Z,12.49
2022-11-16T06:07:46.441Z,12.51
2022-11-16T06:08:51.558Z,12.49
2022-11-16T06:09:57.531Z,12.46
2022-11-16T06:10:59.889Z,12.46
2022-11-16T06:12:02.492Z,12.46
2022-11-16T06:13:05.135Z,12.43
2022-11-16T06:14:07.790Z,12.41
2022-11-16T06:15:10.413Z,12.38
2022-11-16T06:17:29.280Z,12.35
2022-11-16T06:18:37.096Z,12.34
2022-11-16T06:19:40.170Z,12.34
2022-11-16T06:20:42.743Z,12.32
2022-11-16T06:22:01.201Z,12.25
2022-11-16T06:23:06.827Z,12.26
2022-11-16T06:24:29.263Z,12.25
2022-11-16T06:25:53.091Z,12.25
2022-11-16T06:26:55.698Z,12.25
2022-11-16T06:31:09.902Z,12.2
2022-11-16T06:32:12.526Z,12.18
2022-11-16T06:33:15.888Z,12.16
2022-11-16T06:34:18.357Z,12.14
2022-11-16T06:35:25.677Z,12.12
2022-11-16T06:36:27.621Z,12.15
2022-11-16T06:37:30.224Z,12.15
2022-11-16T06:38:38.347Z,12.13
2022-11-16T06:39:47.266Z,12.12
2022-11-16T06:40:49.774Z,12.14
2022-11-16T06:41:52.210Z,12.14
2022-11-16T06:42:59.224Z,12.14
2022-11-16T06:44:01.212Z,12.16
2022-11-16T06:45:13.862Z,12.16
2022-11-16T06:46:16.051Z,12.17
2022-11-16T06:47:27.948Z,12.15
2022-11-16T06:48:30.520Z,12.17
2022-11-16T06:49:33.309Z,12.19
2022-11-16T06:50:36.100Z,12.19
2022-11-16T06:51:38.712Z,12.19
2022-11-16T06:52:41.364Z,12.2
2022-11-16T06:53:44.230Z,12.21
2022-11-16T06:54:46.877Z,12.23
2022-11-16T06:55:55.026Z,12.23
2022-11-16T06:56:57.203Z,12.23
2022-11-16T06:58:05.382Z,12.21
2022-11-16T06:59:09.043Z,12.22
2022-11-16T07:00:11.481Z,12.22
2022-11-16T07:01:14.206Z,12.23
2022-11-16T07:02:16.937Z,12.24
2022-11-16T07:03:19.823Z,12.21
2022-11-16T07:04:22.512Z,12.22
2022-11-16T07:05:32.002Z,12.22
2022-11-16T07:06:34.862Z,12.24
2022-11-16T07:07:37.386Z,12.25
2022-11-16T07:08:40.083Z,12.27
2022-11-16T07:09:47.519Z,12.3
2022-11-16T07:11:06.774Z,12.3
2022-11-16T07:12:13.137Z,12.31
2022-11-16T07:13:15.359Z,12.34
2022-11-16T07:14:18.534Z,12.34
2022-11-16T07:15:21.115Z,12.35
2022-11-16T07:16:23.757Z,12.33
2022-11-16T07:17:31.959Z,12.34
2022-11-16T07:18:36.887Z,12.34
2022-11-16T07:19:40.254Z,12.35
2022-11-16T07:20:42.769Z,12.36
2022-11-16T07:21:45.641Z,12.34
2022-11-16T07:22:48.395Z,12.37
2022-11-16T07:23:53.303Z,12.36
2022-11-16T07:25:01.038Z,12.37
2022-11-16T07:26:03.240Z,12.39
2022-11-16T07:27:05.775Z,12.38
2022-11-16T07:28:17.491Z,12.38
2022-11-16T07:29:19.513Z,12.37
2022-11-16T07:30:22.372Z,12.38
2022-11-16T07:31:38.565Z,12.37
2022-11-16T07:32:40.930Z,12.38
2022-11-16T07:33:47.972Z,12.4
2022-11-16T07:34:50.523Z,12.41
2022-11-16T07:35:53.384Z,12.44
2022-11-16T07:36:56.328Z,12.46
2022-11-16T07:37:58.933Z,12.48
2022-11-16T07:39:01.566Z,12.49
2022-11-16T07:40:04.257Z,12.49
2022-11-16T07:41:06.920Z,12.5
2022-11-16T07:42:10.106Z,12.51
2022-11-16T07:43:18.162Z,12.55
2022-11-16T07:44:20.269Z,12.6
2022-11-16T07:45:34.100Z,12.65
2022-11-16T07:46:48.318Z,12.71
2022-11-16T07:47:51.064Z,12.71
2022-11-16T07:49:11.571Z,12.72
2022-11-16T07:50:14.272Z,12.71
2022-11-16T07:51:16.781Z,12.71
2022-11-16T07:52:30.596Z,12.72
2022-11-16T07:53:54.444Z,12.72
2022-11-16T07:55:21.599Z,12.7
2022-11-16T07:57:00.420Z,12.7
2022-11-16T07:58:04.590Z,12.72
2022-11-16T07:59:43.435Z,12.73
2022-11-16T08:00:45.337Z,12.76
2022-11-16T08:01:48.109Z,12.75
2022-11-16T08:02:56.575Z,12.73
2022-11-16T08:04:00.420Z,12.74
2022-11-16T08:05:02.531Z,12.74
2022-11-16T08:06:11.081Z,12.74
2022-11-16T08:07:16.610Z,12.74
2022-11-16T08:08:19.498Z,12.77
2022-11-16T08:09:23.798Z,12.78
2022-11-16T08:10:31.995Z,12.79
2022-11-16T08:11:34.642Z,12.81
2022-11-16T08:12:48.191Z,12.83
2022-11-16T08:14:02.211Z,12.86
2022-11-16T08:15:07.404Z,12.9
2022-11-16T08:16:17.755Z,12.95
2022-11-16T08:17:19.714Z,12.99
2022-11-16T08:18:22.335Z,13.04
2022-11-16T08:19:24.917Z,13.08
2022-11-16T08:20:27.801Z,13.12
2022-11-16T08:21:30.669Z,13.16
2022-11-16T08:22:33.288Z,13.2
2022-11-16T08:23:36.053Z,13.27
2022-11-16T08:24:38.699Z,13.33
2022-11-16T08:25:41.351Z,13.38
2022-11-16T08:26:43.973Z,13.43
2022-11-16T08:27:46.663Z,13.48
2022-11-16T08:28:50.339Z,13.51
2022-11-16T08:29:52.949Z,13.54
2022-11-16T08:30:55.630Z,13.68
2022-11-16T08:31:58.291Z,13.87
2022-11-16T08:33:00.959Z,14.07
2022-11-16T08:34:03.640Z,14.34
2022-11-16T08:35:06.299Z,14.69
2022-11-16T08:36:14.683Z,15
2022-11-16T08:37:17.137Z,15.27
2022-11-16T08:38:19.802Z,15.46
2022-11-16T08:39:22.561Z,15.58
2022-11-16T08:40:25.228Z,15.78
2022-11-16T08:41:27.903Z,16.02
2022-11-16T08:42:31.231Z,16.29
2022-11-16T08:43:33.844Z,16.62
2022-11-16T08:44:36.535Z,16.96
2022-11-16T08:45:39.247Z,17.23
2022-11-16T08:46:41.937Z,17.56
2022-11-16T08:47:45.690Z,17.87
2022-11-16T08:48:48.806Z,18.01
2022-11-16T08:49:51.541Z,18.09
2022-11-16T08:51:20.273Z,18.32
2022-11-16T08:52:16.120Z,18.64
2022-11-16T08:53:19.310Z,18.92
2022-11-16T08:54:21.947Z,19.18
2022-11-16T08:55:24.731Z,19.34
2022-11-16T08:56:27.750Z,19.58
2022-11-16T08:57:30.422Z,19.85
2022-11-16T08:58:34.053Z,20.04
2022-11-16T08:59:37.445Z,20.23
2022-11-16T09:00:40.115Z,20.41
2022-11-16T09:01:42.921Z,20.57
2022-11-16T09:02:45.702Z,20.68
2022-11-16T09:03:48.837Z,20.91
2022-11-16T09:04:51.734Z,21.08
2022-11-16T09:05:54.434Z,21.17
2022-11-16T09:06:57.432Z,20.88
2022-11-16T09:08:00.171Z,20.38
2022-11-16T09:09:04.390Z,19.78
2022-11-16T09:10:07.213Z,19.28
2022-11-16T09:11:10.502Z,18.85
2022-11-16T09:12:13.114Z,18.28
2022-11-16T09:13:15.974Z,17.96
2022-11-16T09:14:18.614Z,17.72
2022-11-16T09:15:21.314Z,17.56
2022-11-16T09:16:24.023Z,17.53
2022-11-16T09:17:26.749Z,17.83
2022-11-16T09:18:29.616Z,18.22
2022-11-16T09:19:33.750Z,18.69
2022-11-16T09:20:36.336Z,19.12
2022-11-16T09:21:39.459Z,19.57
2022-11-16T09:22:42.416Z,19.98
2022-11-16T09:23:45.088Z,20.29
2022-11-16T09:24:47.968Z,20.56
2022-11-16T09:25:50.673Z,20.5
2022-11-16T09:26:53.465Z,20.25
2022-11-16T09:27:56.145Z,20.28
2022-11-16T09:28:58.810Z,20.5
2022-11-16T09:30:01.554Z,20.68
2022-11-16T09:31:04.394Z,20.72
2022-11-16T09:32:07.109Z,20.54
2022-11-16T09:33:09.789Z,20.62
2022-11-16T09:34:12.462Z,20.46
2022-11-16T09:35:15.095Z,20.36
2022-11-16T09:36:18.058Z,19.9
2022-11-16T09:37:20.702Z,19.6
2022-11-16T09:38:46.793Z,19.7
2022-11-16T09:39:45.261Z,19.73
2022-11-16T09:40:48.226Z,19.52
2022-11-16T09:41:50.882Z,19.67
2022-11-16T09:42:53.664Z,19.77
2022-11-16T09:43:56.341Z,20.02
2022-11-16T09:44:58.991Z,20.29
2022-11-16T09:46:01.659Z,20.59
2022-11-16T09:47:04.351Z,20.71
2022-11-16T09:48:07.046Z,20.8
2022-11-16T09:49:18.158Z,20.95
2022-11-16T09:50:20.426Z,20.98
2022-11-16T09:51:23.099Z,20.9
2022-11-16T09:52:25.763Z,20.87
2022-11-16T09:53:28.444Z,20.86
2022-11-16T09:54:34.643Z,20.88
2022-11-16T09:55:37.063Z,20.86
2022-11-16T09:56:39.913Z,20.79
2022-11-16T09:57:42.605Z,20.69
2022-11-16T09:58:45.436Z,20.57
2022-11-16T09:59:48.075Z,20.44
2022-11-16T10:00:50.928Z,20.29
2022-11-16T10:01:53.665Z,20.09
2022-11-16T10:02:56.340Z,19.93
2022-11-16T10:04:09.047Z,19.92
2022-11-16T10:05:11.259Z,19.83
2022-11-16T10:06:14.139Z,19.69
2022-11-16T10:07:17.072Z,19.53
2022-11-16T10:08:19.800Z,19.44
2022-11-16T10:09:22.439Z,19.37
2022-11-16T10:10:25.100Z,19.1
2022-11-16T10:11:27.786Z,18.9
2022-11-16T10:12:36.186Z,18.81
2022-11-16T10:13:38.543Z,18.85
2022-11-16T10:14:41.267Z,19.19
2022-11-16T10:15:44.366Z,19.16
2022-11-16T10:16:49.913Z,19.26
2022-11-16T10:17:52.449Z,19.44
2022-11-16T10:18:58.658Z,19.87
2022-11-16T10:20:01.223Z,20.14
2022-11-16T10:21:03.900Z,20.13
2022-11-16T10:22:06.572Z,20.49
2022-11-16T10:23:09.269Z,21.43
2022-11-16T10:24:11.988Z,22.06
2022-11-16T10:25:14.706Z,23.02
2022-11-16T10:26:18.023Z,23.41
2022-11-16T10:27:22.516Z,24.19
2022-11-16T10:28:25.405Z,24.78
2022-11-16T10:29:28.301Z,25.45
2022-11-16T10:30:31.156Z,25.89
2022-11-16T10:31:33.941Z,26.15
2022-11-16T10:32:36.744Z,26.26
2022-11-16T10:33:39.596Z,26.33
2022-11-16T10:34:42.359Z,26.19
2022-11-16T10:35:45.333Z,26.07
2022-11-16T10:36:48.101Z,25.77
2022-11-16T10:37:50.874Z,25.17
2022-11-16T10:38:53.615Z,24.36
2022-11-16T10:39:56.222Z,23.45
2022-11-16T10:40:58.819Z,22.32
2022-11-16T10:42:08.167Z,21.63
2022-11-16T10:43:10.371Z,21.09
2022-11-16T10:44:13.195Z,20.58
2022-11-16T10:45:15.749Z,20.12
2022-11-16T10:46:18.484Z,19.76
2022-11-16T10:47:21.287Z,19.41
2022-11-16T10:48:23.985Z,18.99
2022-11-16T10:49:26.855Z,18.57
2022-11-16T10:50:29.437Z,18.24
2022-11-16T10:51:32.054Z,18.03
2022-11-16T10:52:34.659Z,17.73
2022-11-16T10:53:38.021Z,17.36
2022-11-16T10:54:44.877Z,17.18
2022-11-16T10:55:47.249Z,17
2022-11-16T10:56:49.906Z,16.84
2022-11-16T10:57:52.552Z,16.71
2022-11-16T10:58:55.190Z,16.59
2022-11-16T10:59:58.081Z,16.54
2022-11-16T11:01:00.975Z,16.46
2022-11-16T11:02:03.786Z,16.45
2022-11-16T11:03:06.987Z,16.43
2022-11-16T11:04:10.025Z,16.42
2022-11-16T11:05:12.640Z,16.38
2022-11-16T11:06:15.277Z,16.31
2022-11-16T11:07:18.144Z,16.29
2022-11-16T11:08:20.845Z,16.26
2022-11-16T11:09:23.507Z,16.24
2022-11-16T11:10:29.053Z,16.22
2022-11-16T11:11:31.529Z,16.2
2022-11-16T11:12:34.183Z,16.09
2022-11-16T11:13:37.412Z,16.09
2022-11-16T11:14:40.031Z,16.14
2022-11-16T11:15:42.827Z,16.16
2022-11-16T11:16:45.443Z,16.13
2022-11-16T11:17:48.218Z,16.13
2022-11-16T11:18:50.854Z,16.11
2022-11-16T11:19:53.456Z,16.09
2022-11-16T11:20:56.126Z,16.05
2022-11-16T11:21:58.769Z,16.03
2022-11-16T11:23:01.404Z,16.04
2022-11-16T11:24:42.696Z,16.07
2022-11-16T11:25:25.951Z,16.12
2022-11-16T11:26:37.612Z,16.19
2022-11-16T11:27:39.918Z,16.26
2022-11-16T11:28:42.529Z,16.35
2022-11-16T11:29:45.151Z,16.41
2022-11-16T11:30:48.186Z,16.43
2022-11-16T11:31:50.799Z,16.4
2022-11-16T11:32:53.519Z,16.36
2022-11-16T11:33:56.168Z,16.32
2022-11-16T11:34:58.829Z,16.28
2022-11-16T11:36:01.493Z,16.22
2022-11-16T11:37:04.145Z,16.25
2022-11-16T11:38:08.834Z,16.3
2022-11-16T11:39:11.458Z,16.33
2022-11-16T11:40:14.245Z,16.34
2022-11-16T11:41:16.877Z,16.3
2022-11-16T11:42:19.536Z,16.36
2022-11-16T11:43:22.428Z,16.37
2022-11-16T11:44:25.040Z,16.36
2022-11-16T11:45:27.721Z,16.29
2022-11-16T11:47:18.579Z,16.14
2022-11-16T11:47:59.933Z,16.12
2022-11-16T11:49:03.118Z,16.11
2022-11-16T11:50:05.708Z,16.07
2022-11-16T11:51:08.352Z,16.01
2022-11-16T11:52:12.196Z,15.93
2022-11-16T11:53:14.759Z,15.89
2022-11-16T11:54:17.388Z,15.87
2022-11-16T11:55:20.060Z,15.83
2022-11-16T11:56:22.637Z,15.79
2022-11-16T11:57:25.280Z,15.81
2022-11-16T11:58:27.939Z,15.84
2022-11-16T11:59:30.567Z,15.88
2022-11-16T12:00:33.262Z,15.9
2022-11-16T12:01:36.021Z,15.96
2022-11-16T12:02:39.000Z,15.96
2022-11-16T12:03:41.703Z,15.9
2022-11-16T12:04:44.355Z,15.93
2022-11-16T12:05:47.004Z,15.93
2022-11-16T12:06:50.038Z,15.93
2022-11-16T12:07:52.766Z,15.86
2022-11-16T12:08:55.423Z,15.82
2022-11-16T12:09:58.111Z,15.79
2022-11-16T12:11:00.741Z,15.77
2022-11-16T12:12:03.395Z,15.78
2022-11-16T12:13:06.040Z,15.75
2022-11-16T12:14:08.654Z,15.75
2022-11-16T12:15:21.336Z,15.72
2022-11-16T12:16:23.572Z,15.66
2022-11-16T12:17:26.321Z,15.62
2022-11-16T12:18:29.151Z,15.62
2022-11-16T12:19:31.782Z,15.62
2022-11-16T12:20:34.544Z,15.63
2022-11-16T12:21:37.196Z,15.64
2022-11-16T12:22:39.808Z,15.66
2022-11-16T12:23:42.470Z,15.7
2022-11-16T12:24:45.124Z,15.73
2022-11-16T12:25:47.769Z,15.74
2022-11-16T12:26:50.409Z,15.72
2022-11-16T12:27:53.065Z,15.68
2022-11-16T12:28:55.727Z,15.65
2022-11-16T12:29:58.365Z,15.68
2022-11-16T12:31:01.003Z,15.68
2022-11-16T12:32:03.636Z,15.63
2022-11-16T12:33:06.577Z,15.64
2022-11-16T12:34:09.391Z,15.69
2022-11-16T12:35:12.044Z,15.74
2022-11-16T12:36:14.745Z,15.77
2022-11-16T12:37:17.974Z,15.8
2022-11-16T12:38:26.675Z,15.83
2022-11-16T12:39:28.957Z,15.86
2022-11-16T12:40:31.588Z,15.86
2022-11-16T12:41:34.205Z,15.9
2022-11-16T12:42:36.848Z,15.9
2022-11-16T12:43:42.282Z,15.85
2022-11-16T12:44:44.798Z,15.77
2022-11-16T12:45:47.965Z,15.71
2022-11-16T12:46:50.595Z,15.66
2022-11-16T12:47:53.280Z,15.61
2022-11-16T12:48:56.070Z,15.6
2022-11-16T12:49:58.656Z,15.6
2022-11-16T12:51:04.142Z,15.6
2022-11-16T12:52:09.738Z,15.58
2022-11-16T12:53:19.208Z,15.57
2022-11-16T12:54:23.215Z,15.57
2022-11-16T12:55:30.694Z,15.57
2022-11-16T12:56:33.312Z,15.58
2022-11-16T12:57:35.942Z,15.57
2022-11-16T12:58:46.072Z,15.61
2022-11-16T12:59:50.513Z,15.66
2022-11-16T13:00:54.260Z,15.71
2022-11-16T13:02:04.445Z,15.75
2022-11-16T13:03:06.722Z,15.79
2022-11-16T13:04:09.477Z,15.81
2022-11-16T13:05:12.249Z,15.84
2022-11-16T13:06:14.876Z,15.85
2022-11-16T13:07:17.741Z,15.83
2022-11-16T13:08:20.749Z,15.83
2022-11-16T13:09:23.591Z,15.85
2022-11-16T13:10:26.260Z,15.89
2022-11-16T13:11:28.878Z,15.93
2022-11-16T13:12:31.510Z,15.96
2022-11-16T13:13:37.579Z,15.98
2022-11-16T13:14:39.951Z,16.01
2022-11-16T13:15:42.576Z,16.01
2022-11-16T13:16:45.493Z,16.02
2022-11-16T13:17:48.117Z,15.98
2022-11-16T13:18:50.742Z,15.93
2022-11-16T13:19:53.458Z,15.88
2022-11-16T13:20:56.209Z,15.83
2022-11-16T13:21:58.860Z,15.79
2022-11-16T13:23:01.521Z,15.75
2022-11-16T13:24:04.158Z,15.72
2022-11-16T13:25:09.602Z,15.7
2022-11-16T13:26:15.530Z,15.65
2022-11-16T13:27:17.927Z,15.61
2022-11-16T13:28:20.548Z,15.6
2022-11-16T13:29:23.215Z,15.56
2022-11-16T13:30:29.391Z,15.51
2022-11-16T13:31:31.793Z,15.49
2022-11-16T13:32:34.453Z,15.45
2022-11-16T13:33:37.074Z,15.43
2022-11-16T13:34:39.703Z,15.4
2022-11-16T13:35:43.037Z,15.35
2022-11-16T13:36:46.374Z,15.32
2022-11-16T13:37:48.950Z,15.31
2022-11-16T13:38:51.859Z,15.28
2022-11-16T13:39:57.971Z,15.27
2022-11-16T13:41:00.441Z,15.25
2022-11-16T13:42:14.571Z,15.23
2022-11-16T13:43:16.928Z,15.21
2022-11-16T13:44:19.488Z,15.16
2022-11-16T13:45:27.668Z,15.16
2022-11-16T13:46:55.104Z,15.13
2022-11-16T13:47:54.161Z,15.11
2022-11-16T13:48:56.760Z,15.1
2022-11-16T13:50:03.891Z,15.06
2022-11-16T13:51:06.322Z,15.03
2022-11-16T13:52:24.016Z,15.01